This is the latest recevied weather packets stored in our database for station/object EFTP. If no packets are shown the sender has not sent any weather packets the latest 10 day(s).
| Time | Temp. | Humidity | Pressure | Rain* | Wind** | Luminosity | Snow |
|---|---|---|---|---|---|---|---|
| 1777786028 | 7.78° C | 78% | 1006.7 hPa | - | - | - | - |
| 1777784827 | 7.78° C | 86% | 1006.7 hPa | - | - | - | - |
| 1777783627 | 7.78° C | 83% | 1006.6 hPa | - | - | - | - |
| 1777782427 | 7.78° C | 81% | 1006.3 hPa | - | - | - | - |
| 1777781227 | 7.78° C | 82% | 1006.6 hPa | - | - | - | - |
| 1777780027 | 8.33° C | 77% | 1006.3 hPa | - | - | - | - |
| 1777778827 | 8.89° C | 71% | 1005.9 hPa | - | - | - | - |
| 1777777627 | 8.89° C | 68% | 1005.7 hPa | - | - | - | - |
| 1777776427 | 8.89° C | 68% | 1005.6 hPa | - | - | - | - |
| 1777775227 | 9.44° C | 64% | 1005.6 hPa | - | - | - | - |
| 1777774027 | 10° C | 60% | 1005.5 hPa | - | - | - | - |
| 1777772827 | 10° C | 58% | 1005.3 hPa | - | - | - | - |
| 1777771627 | 10° C | 57% | 1005.3 hPa | - | - | - | - |
| 1777770427 | 10.56° C | 55% | 1005.3 hPa | - | - | - | - |
| 1777769227 | 10° C | 57% | 1005.5 hPa | - | - | - | - |
| 1777768027 | 9.44° C | 59% | 1005.1 hPa | - | - | - | - |
| 1777766827 | 10° C | 58% | 1005.3 hPa | - | - | - | - |
| 1777765627 | 10.56° C | 58% | 1005.4 hPa | - | - | - | - |
| 1777764427 | 9.44° C | 60% | 1005.3 hPa | - | - | - | - |
| 1777763226 | 10° C | 56% | 1005.5 hPa | - | - | - | - |
| 1777762027 | 10° C | 57% | 1005.8 hPa | - | - | - | - |
| 1777760827 | 10° C | 56% | 1005.8 hPa | - | - | - | - |
| 1777759627 | 10.56° C | 51% | 1005.9 hPa | - | - | - | - |
| 1777758426 | 11.11° C | 51% | 1005.9 hPa | - | - | - | - |
| 1777757226 | 10.56° C | 56% | 1006 hPa | - | - | - | - |
* Rain since midnight (hover to see other rain measurements)
** Current wind speed in m/s (hover to see current wind gust speed)